To NAV CANADA Home Page Login to a new session Search on AWWS site Feedback and Comments Disclaimer Vers la page française équivalente Tips FAQ What's new on the site To the Forecasts and Observations / NOTAM section To "File a Flight Plan" website Publications and other links Update of the User's profile FIC Telephone Numbers My Weather Data Folder Route Weather Data Regional Weather Data Local Weather Data To the Forecasts and Observations / NOTAM section
Request Generated 04/18/2014 at 23:43:09 UTC . Weather information available at that time is displayed.

METAR/TAF

WHITEHORSE/ERIK NIELSEN INTL/YT    

METAR CYXY 182300Z 25015G21KT 180V250 40SM BKN070 08/M05 A2960 RMK
AC7 SLP052 DENSITY ALT 2400FT=
SPECI CYXY 182248Z 22008G18KT 40SM BKN070 07/M05 A2960 RMK AC7 WSHFT
2236 SLP051=
METAR CYXY 182200Z 18010G17KT 40SM BKN065TCU 07/M05 A2959 RMK TCU7
SLP048=
METAR CYXY 182100Z 15016KT 40SM SCT060TCU BKN074 07/M03 A2958 RMK
TCU3AC4 SLP044=

TAF CYXY 182338Z 1900/1912 19010G20KT P6SM SCT070 TEMPO 1900/1904
VRB15G25KT P6SM -SHRA BKN060
BECMG 1904/1906 18008KT
RMK NXT FCST BY 190600Z=
Your time UTC time
Weather data provided by Environment Canada and NAV CANADA